createdAt,value
2022-11-16T00:16:26.204Z,5.66
2022-11-16T00:36:26.199Z,5.66
2022-11-16T00:56:33.147Z,5.64
2022-11-16T01:36:26.188Z,5.5
2022-11-16T01:56:26.052Z,5.47
2022-11-16T02:16:26.020Z,5.44
2022-11-16T02:56:26.019Z,5.27
2022-11-16T03:16:25.951Z,5.22
2022-11-16T03:36:25.889Z,5.22
2022-11-16T03:56:25.843Z,5.26
2022-11-16T04:16:25.902Z,5.27
2022-11-16T04:36:25.786Z,5.26
2022-11-16T04:56:25.784Z,5.26
2022-11-16T05:16:25.709Z,5.24
2022-11-16T05:36:25.688Z,5.2
2022-11-16T05:56:25.723Z,5.23
2022-11-16T06:16:34.528Z,5.27
2022-11-16T06:36:32.790Z,5.27
2022-11-16T06:56:25.551Z,5.27
2022-11-16T07:36:32.509Z,5.44
2022-11-16T07:56:25.485Z,5.54
2022-11-16T08:16:25.471Z,5.64
2022-11-16T08:36:39.485Z,5.76
2022-11-16T08:56:25.459Z,5.9
2022-11-16T09:36:32.381Z,6.21
2022-11-16T09:56:25.305Z,6.36
2022-11-16T10:16:25.303Z,6.43
2022-11-16T10:36:25.355Z,6.48
2022-11-16T10:56:25.251Z,6.37
2022-11-16T11:16:25.201Z,6.22
2022-11-16T11:36:25.184Z,6.14
2022-11-16T11:56:25.042Z,6.18
2022-11-16T12:16:39.000Z,6.16
2022-11-16T12:36:25.000Z,6.06
2022-11-16T12:56:24.944Z,6.01
2022-11-16T13:16:24.894Z,5.82
2022-11-16T13:36:24.875Z,5.69
2022-11-16T13:56:36.872Z,5.69
2022-11-16T14:16:24.807Z,5.62
2022-11-16T14:36:24.758Z,5.61
2022-11-16T14:56:31.834Z,5.56
2022-11-16T15:16:24.702Z,5.56
2022-11-16T15:36:24.785Z,5.61
2022-11-16T15:56:24.712Z,5.58
2022-11-16T17:36:24.497Z,5.45
2022-11-16T18:16:24.517Z,5.45
2022-11-16T18:36:24.398Z,5.41
2022-11-16T18:56:24.431Z,5.46
2022-11-16T19:16:29.407Z,5.39
2022-11-16T19:36:24.358Z,5.32
2022-11-16T19:56:24.641Z,5.35
2022-11-16T20:16:24.197Z,5.34
2022-11-16T20:36:24.269Z,5.35
2022-11-16T20:56:24.278Z,5.34
2022-11-16T21:16:31.291Z,5.27
2022-11-16T21:36:24.260Z,5.27
2022-11-16T21:56:24.182Z,5.26
2022-11-16T22:16:38.104Z,5.26
2022-11-16T22:36:31.070Z,5.19
2022-11-16T22:56:38.069Z,5.15
2022-11-16T23:16:24.039Z,5.01
2022-11-16T23:36:23.870Z,4.92
2022-11-16T23:56:23.903Z,4.88
